sensor_id;sensor_type;location;lat;lon;timestamp;pressure;altitude;pressure_sealevel;temperature;humidity
3132;BME280;62090;52.330;9.104;2024-03-06T00:00:56;101323.41;;;6.98;87.04
3132;BME280;62090;52.330;9.104;2024-03-06T00:03:26;101335.91;;;6.95;87.72
3132;BME280;62090;52.330;9.104;2024-03-06T00:05:56;101306.13;;;6.73;87.74
3132;BME280;62090;52.330;9.104;2024-03-06T00:08:29;101248.28;;;6.29;88.33
3132;BME280;62090;52.330;9.104;2024-03-06T00:10:59;101335.78;;;6.92;88.17
3132;BME280;62090;52.330;9.104;2024-03-06T00:13:29;101334.72;;;6.88;88.25
3132;BME280;62090;52.330;9.104;2024-03-06T00:15:59;101300.84;;;6.68;87.53
3132;BME280;62090;52.330;9.104;2024-03-06T00:18:29;101229.88;;;6.15;87.66
3132;BME280;62090;52.330;9.104;2024-03-06T00:20:59;101325.38;;;6.69;87.69
3132;BME280;62090;52.330;9.104;2024-03-06T00:23:32;101303.06;;;6.45;88.17
3132;BME280;62090;52.330;9.104;2024-03-06T00:26:02;101344.53;;;6.64;89.16
3132;BME280;62090;52.330;9.104;2024-03-06T00:28:33;101342.72;;;6.62;89.12
3132;BME280;62090;52.330;9.104;2024-03-06T00:31:04;101339.72;;;6.53;89.29
3132;BME280;62090;52.330;9.104;2024-03-06T00:33:34;101345.81;;;6.56;88.83
3132;BME280;62090;52.330;9.104;2024-03-06T00:36:06;101350.72;;;6.53;88.88
3132;BME280;62090;52.330;9.104;2024-03-06T00:38:38;101356.91;;;6.58;89.93
3132;BME280;62090;52.330;9.104;2024-03-06T00:41:08;101323.22;;;6.43;89.70
3132;BME280;62090;52.330;9.104;2024-03-06T00:43:39;101275.56;;;6.18;88.58
3132;BME280;62090;52.330;9.104;2024-03-06T00:46:09;101350.31;;;6.62;88.51
3132;BME280;62090;52.330;9.104;2024-03-06T00:48:39;101318.94;;;6.42;89.05
3132;BME280;62090;52.330;9.104;2024-03-06T00:51:09;101366.31;;;6.61;88.96
3132;BME280;62090;52.330;9.104;2024-03-06T00:53:41;101356.66;;;6.54;89.44
3132;BME280;62090;52.330;9.104;2024-03-06T00:56:11;101370.19;;;6.54;89.59
3132;BME280;62090;52.330;9.104;2024-03-06T00:58:42;101376.38;;;6.59;89.36
3132;BME280;62090;52.330;9.104;2024-03-06T01:01:12;101361.56;;;6.51;89.85
3132;BME280;62090;52.330;9.104;2024-03-06T01:03:42;101334.56;;;6.33;90.08
3132;BME280;62090;52.330;9.104;2024-03-06T01:06:12;101337.97;;;6.34;90.15
3132;BME280;62090;52.330;9.104;2024-03-06T01:08:45;101383.31;;;6.63;89.87
3132;BME280;62090;52.330;9.104;2024-03-06T01:11:15;101379.22;;;6.65;89.95
3132;BME280;62090;52.330;9.104;2024-03-06T01:13:45;101380.56;;;6.59;90.09
3132;BME280;62090;52.330;9.104;2024-03-06T01:16:15;101383.00;;;6.57;90.24
3132;BME280;62090;52.330;9.104;2024-03-06T01:18:45;101359.34;;;6.41;89.85
3132;BME280;62090;52.330;9.104;2024-03-06T01:21:15;101367.03;;;6.42;90.48
3132;BME280;62090;52.330;9.104;2024-03-06T01:23:48;101336.59;;;6.24;90.34
3132;BME280;62090;52.330;9.104;2024-03-06T01:26:18;101389.66;;;6.55;90.38
3132;BME280;62090;52.330;9.104;2024-03-06T01:28:48;101383.25;;;6.46;90.40
3132;BME280;62090;52.330;9.104;2024-03-06T01:31:18;101282.59;;;5.75;90.47
3132;BME280;62090;52.330;9.104;2024-03-06T01:33:48;101283.75;;;5.82;90.92
3132;BME280;62090;52.330;9.104;2024-03-06T01:36:18;101392.03;;;6.52;90.48
3132;BME280;62090;52.330;9.104;2024-03-06T01:38:51;101391.88;;;6.49;90.79
3132;BME280;62090;52.330;9.104;2024-03-06T01:41:21;101392.22;;;6.39;90.99
3132;BME280;62090;52.330;9.104;2024-03-06T01:43:52;101389.41;;;6.34;91.95
3132;BME280;62090;52.330;9.104;2024-03-06T01:46:22;101408.09;;;6.36;91.74
3132;BME280;62090;52.330;9.104;2024-03-06T01:48:52;101413.38;;;6.41;91.43
3132;BME280;62090;52.330;9.104;2024-03-06T01:51:22;101386.66;;;6.30;92.14
3132;BME280;62090;52.330;9.104;2024-03-06T01:53:55;101396.78;;;6.46;91.77
3132;BME280;62090;52.330;9.104;2024-03-06T01:56:25;101360.56;;;6.15;91.51
3132;BME280;62090;52.330;9.104;2024-03-06T01:58:55;101374.50;;;6.23;91.33
3132;BME280;62090;52.330;9.104;2024-03-06T02:01:26;101419.88;;;6.36;91.65
3132;BME280;62090;52.330;9.104;2024-03-06T02:03:56;101339.16;;;5.92;91.42
3132;BME280;62090;52.330;9.104;2024-03-06T02:06:26;101382.22;;;6.10;91.97
3132;BME280;62090;52.330;9.104;2024-03-06T02:08:59;101370.75;;;6.00;92.90
3132;BME280;62090;52.330;9.104;2024-03-06T02:11:30;101372.66;;;6.04;93.41
3132;BME280;62090;52.330;9.104;2024-03-06T02:14:00;101387.94;;;6.22;93.11
3132;BME280;62090;52.330;9.104;2024-03-06T02:16:30;101367.44;;;6.17;92.12
3132;BME280;62090;52.330;9.104;2024-03-06T02:19:00;101327.19;;;5.89;92.83
3132;BME280;62090;52.330;9.104;2024-03-06T02:21:33;101398.94;;;6.22;93.71
3132;BME280;62090;52.330;9.104;2024-03-06T02:24:03;101398.69;;;6.18;94.15
3132;BME280;62090;52.330;9.104;2024-03-06T02:26:35;101403.75;;;6.18;94.42
3132;BME280;62090;52.330;9.104;2024-03-06T02:29:06;101410.47;;;6.17;94.47
3132;BME280;62090;52.330;9.104;2024-03-06T02:31:36;101410.63;;;6.20;94.77
3132;BME280;62090;52.330;9.104;2024-03-06T02:34:07;101389.91;;;6.11;94.66
3132;BME280;62090;52.330;9.104;2024-03-06T02:36:39;101411.16;;;6.15;95.32
3132;BME280;62090;52.330;9.104;2024-03-06T02:39:09;101365.91;;;5.88;95.42
3132;BME280;62090;52.330;9.104;2024-03-06T02:41:39;101388.00;;;6.07;95.89
3132;BME280;62090;52.330;9.104;2024-03-06T02:44:10;101375.25;;;5.89;96.44
3132;BME280;62090;52.330;9.104;2024-03-06T02:46:40;101410.06;;;6.10;97.39
3132;BME280;62090;52.330;9.104;2024-03-06T02:49:10;101416.84;;;6.11;98.19
3132;BME280;62090;52.330;9.104;2024-03-06T02:51:43;101394.06;;;5.94;99.07
3132;BME280;62090;52.330;9.104;2024-03-06T02:54:13;101412.91;;;6.16;99.42
3132;BME280;62090;52.330;9.104;2024-03-06T02:56:43;101431.50;;;6.16;99.62
3132;BME280;62090;52.330;9.104;2024-03-06T02:59:13;101392.50;;;5.97;100.00
3132;BME280;62090;52.330;9.104;2024-03-06T03:01:44;101425.22;;;6.10;100.00
3132;BME280;62090;52.330;9.104;2024-03-06T03:04:14;101420.81;;;6.06;100.00
3132;BME280;62090;52.330;9.104;2024-03-06T03:06:46;101342.53;;;5.62;100.00
3132;BME280;62090;52.330;9.104;2024-03-06T03:09:17;101425.09;;;6.07;100.00
3132;BME280;62090;52.330;9.104;2024-03-06T03:11:47;101393.66;;;5.72;100.00
3132;BME280;62090;52.330;9.104;2024-03-06T03:14:17;101438.09;;;5.98;100.00
3132;BME280;62090;52.330;9.104;2024-03-06T03:16:47;101453.28;;;5.98;100.00
3132;BME280;62090;52.330;9.104;2024-03-06T03:19:18;101432.16;;;5.98;100.00
3132;BME280;62090;52.330;9.104;2024-03-06T03:21:50;101394.09;;;5.80;100.00
3132;BME280;62090;52.330;9.104;2024-03-06T03:24:20;101448.31;;;6.00;100.00
3132;BME280;62090;52.330;9.104;2024-03-06T03:26:52;101425.91;;;5.76;100.00
3132;BME280;62090;52.330;9.104;2024-03-06T03:29:22;101416.41;;;5.72;100.00
3132;BME280;62090;52.330;9.104;2024-03-06T03:31:52;101447.34;;;5.98;100.00
3132;BME280;62090;52.330;9.104;2024-03-06T03:34:23;101426.25;;;5.82;100.00
3132;BME280;62090;52.330;9.104;2024-03-06T03:36:55;101449.59;;;6.08;100.00
3132;BME280;62090;52.330;9.104;2024-03-06T03:39:25;101426.19;;;5.81;100.00
3132;BME280;62090;52.330;9.104;2024-03-06T03:41:55;101449.97;;;5.99;100.00
3132;BME280;62090;52.330;9.104;2024-03-06T03:44:25;101432.91;;;5.80;100.00
3132;BME280;62090;52.330;9.104;2024-03-06T03:46:55;101447.19;;;5.94;100.00
3132;BME280;62090;52.330;9.104;2024-03-06T03:49:25;101451.72;;;5.85;100.00
3132;BME280;62090;52.330;9.104;2024-03-06T03:51:58;101362.81;;;5.32;100.00
3132;BME280;62090;52.330;9.104;2024-03-06T03:54:28;101348.19;;;5.27;100.00
3132;BME280;62090;52.330;9.104;2024-03-06T03:56:58;101431.78;;;5.75;100.00
3132;BME280;62090;52.330;9.104;2024-03-06T03:59:28;101466.31;;;5.89;100.00
3132;BME280;62090;52.330;9.104;2024-03-06T04:01:58;101365.69;;;5.24;100.00
3132;BME280;62090;52.330;9.104;2024-03-06T04:04:29;101433.19;;;5.70;100.00
3132;BME280;62090;52.330;9.104;2024-03-06T04:07:03;101468.38;;;5.82;100.00
3132;BME280;62090;52.330;9.104;2024-03-06T04:09:33;101461.66;;;5.82;100.00
3132;BME280;62090;52.330;9.104;2024-03-06T04:12:06;101465.25;;;5.86;100.00
3132;BME280;62090;52.330;9.104;2024-03-06T04:14:36;101464.88;;;5.94;100.00
3132;BME280;62090;52.330;9.104;2024-03-06T04:17:06;101390.09;;;5.38;100.00
3132;BME280;62090;52.330;9.104;2024-03-06T04:19:37;101477.88;;;5.86;100.00
3132;BME280;62090;52.330;9.104;2024-03-06T04:22:09;101458.78;;;5.76;100.00
3132;BME280;62090;52.330;9.104;2024-03-06T04:24:41;101468.84;;;5.75;100.00
3132;BME280;62090;52.330;9.104;2024-03-06T04:27:11;101480.84;;;5.93;100.00
3132;BME280;62090;52.330;9.104;2024-03-06T04:29:43;101380.53;;;5.32;100.00
3132;BME280;62090;52.330;9.104;2024-03-06T04:32:13;101434.13;;;5.72;100.00
3132;BME280;62090;52.330;9.104;2024-03-06T04:34:43;101434.47;;;5.78;100.00
3132;BME280;62090;52.330;9.104;2024-03-06T04:37:16;101436.31;;;5.81;100.00
3132;BME280;62090;52.330;9.104;2024-03-06T04:39:46;101481.44;;;6.04;100.00
3132;BME280;62090;52.330;9.104;2024-03-06T04:42:16;101487.22;;;6.02;100.00
3132;BME280;62090;52.330;9.104;2024-03-06T04:44:46;101488.34;;;6.07;100.00
3132;BME280;62090;52.330;9.104;2024-03-06T04:47:16;101491.97;;;6.12;100.00
3132;BME280;62090;52.330;9.104;2024-03-06T04:49:46;101499.72;;;6.15;100.00
3132;BME280;62090;52.330;9.104;2024-03-06T04:52:19;101467.22;;;6.06;100.00
3132;BME280;62090;52.330;9.104;2024-03-06T04:54:49;101507.25;;;6.13;100.00
3132;BME280;62090;52.330;9.104;2024-03-06T04:57:19;101492.28;;;6.02;100.00
3132;BME280;62090;52.330;9.104;2024-03-06T04:59:50;101467.97;;;5.89;100.00
3132;BME280;62090;52.330;9.104;2024-03-06T05:02:20;101464.38;;;5.85;100.00
3132;BME280;62090;52.330;9.104;2024-03-06T05:04:50;101492.88;;;5.98;100.00
3132;BME280;62090;52.330;9.104;2024-03-06T05:07:36;101514.56;;;6.09;100.00
3132;BME280;62090;52.330;9.104;2024-03-06T05:10:20;101503.97;;;6.00;100.00
3132;BME280;62090;52.330;9.104;2024-03-06T05:13:05;101513.38;;;6.02;100.00
3132;BME280;62090;52.330;9.104;2024-03-06T05:15:49;101518.69;;;6.07;100.00
3132;BME280;62090;52.330;9.104;2024-03-06T05:18:35;101525.56;;;6.09;100.00
3132;BME280;62090;52.330;9.104;2024-03-06T05:21:19;101509.63;;;5.96;100.00
3132;BME280;62090;52.330;9.104;2024-03-06T05:24:06;101517.47;;;6.00;100.00
3132;BME280;62090;52.330;9.104;2024-03-06T05:26:50;101510.84;;;5.87;100.00
3132;BME280;62090;52.330;9.104;2024-03-06T05:29:34;101508.03;;;5.83;100.00
3132;BME280;62090;52.330;9.104;2024-03-06T05:32:18;101527.22;;;6.09;100.00
3132;BME280;62090;52.330;9.104;2024-03-06T05:35:03;101508.63;;;5.92;100.00
3132;BME280;62090;52.330;9.104;2024-03-06T05:37:47;101508.84;;;5.97;100.00
3132;BME280;62090;52.330;9.104;2024-03-06T05:40:33;101508.03;;;5.98;100.00
3132;BME280;62090;52.330;9.104;2024-03-06T05:43:20;101477.88;;;5.71;100.00
3132;BME280;62090;52.330;9.104;2024-03-06T05:46:04;101525.50;;;6.08;100.00
3132;BME280;62090;52.330;9.104;2024-03-06T05:48:48;101523.41;;;6.01;100.00
3132;BME280;62090;52.330;9.104;2024-03-06T05:51:32;101534.56;;;6.04;100.00
3132;BME280;62090;52.330;9.104;2024-03-06T05:54:16;101540.84;;;6.11;100.00
3132;BME280;62090;52.330;9.104;2024-03-06T05:57:02;101551.94;;;6.13;100.00
3132;BME280;62090;52.330;9.104;2024-03-06T05:59:47;101546.94;;;6.14;100.00
3132;BME280;62090;52.330;9.104;2024-03-06T06:02:17;101552.94;;;6.16;100.00
3132;BME280;62090;52.330;9.104;2024-03-06T06:04:47;101557.16;;;6.16;100.00
3132;BME280;62090;52.330;9.104;2024-03-06T06:07:37;101556.56;;;6.05;100.00
3132;BME280;62090;52.330;9.104;2024-03-06T06:10:07;101559.19;;;6.07;100.00
3132;BME280;62090;52.330;9.104;2024-03-06T06:12:40;101553.94;;;6.04;100.00
3132;BME280;62090;52.330;9.104;2024-03-06T06:15:11;101567.88;;;6.12;100.00
3132;BME280;62090;52.330;9.104;2024-03-06T06:17:42;101569.44;;;6.10;100.00
3132;BME280;62090;52.330;9.104;2024-03-06T06:20:13;101570.94;;;6.06;100.00
3132;BME280;62090;52.330;9.104;2024-03-06T06:22:45;101532.22;;;5.78;100.00
3132;BME280;62090;52.330;9.104;2024-03-06T06:25:16;101583.22;;;6.15;100.00
3132;BME280;62090;52.330;9.104;2024-03-06T06:27:48;101585.13;;;6.19;100.00
3132;BME280;62090;52.330;9.104;2024-03-06T06:30:19;101589.88;;;6.13;100.00
3132;BME280;62090;52.330;9.104;2024-03-06T06:32:49;101594.41;;;6.18;100.00
3132;BME280;62090;52.330;9.104;2024-03-06T06:35:19;101563.88;;;6.01;100.00
3132;BME280;62090;52.330;9.104;2024-03-06T06:37:49;101590.47;;;6.09;100.00
3132;BME280;62090;52.330;9.104;2024-03-06T06:40:19;101610.13;;;6.13;100.00
3132;BME280;62090;52.330;9.104;2024-03-06T06:42:52;101596.06;;;6.03;100.00
3132;BME280;62090;52.330;9.104;2024-03-06T06:45:22;101617.09;;;6.17;100.00
3132;BME280;62090;52.330;9.104;2024-03-06T06:47:53;101587.94;;;6.09;100.00
3132;BME280;62090;52.330;9.104;2024-03-06T06:50:23;101627.34;;;6.34;100.00
3132;BME280;62090;52.330;9.104;2024-03-06T06:52:54;101636.94;;;6.40;100.00
3132;BME280;62090;52.330;9.104;2024-03-06T06:55:26;101628.22;;;6.35;100.00
3132;BME280;62090;52.330;9.104;2024-03-06T06:57:59;101638.19;;;6.32;100.00
3132;BME280;62090;52.330;9.104;2024-03-06T07:00:29;101630.69;;;6.33;100.00
3132;BME280;62090;52.330;9.104;2024-03-06T07:03:00;101636.63;;;6.34;100.00
3132;BME280;62090;52.330;9.104;2024-03-06T07:05:30;101648.16;;;6.29;100.00
3132;BME280;62090;52.330;9.104;2024-03-06T07:08:00;101634.63;;;6.28;100.00
3132;BME280;62090;52.330;9.104;2024-03-06T07:10:30;101638.03;;;6.29;100.00
3132;BME280;62090;52.330;9.104;2024-03-06T07:13:05;101651.63;;;6.31;100.00
3132;BME280;62090;52.330;9.104;2024-03-06T07:15:35;101626.19;;;6.13;100.00
3132;BME280;62090;52.330;9.104;2024-03-06T07:18:06;101637.84;;;6.26;100.00
3132;BME280;62090;52.330;9.104;2024-03-06T07:20:55;101640.81;;;6.19;100.00
3132;BME280;62090;52.330;9.104;2024-03-06T07:23:24;101666.03;;;6.32;100.00
3132;BME280;62090;52.330;9.104;2024-03-06T07:25:55;101662.78;;;6.34;100.00
3132;BME280;62090;52.330;9.104;2024-03-06T07:28:28;101603.59;;;6.02;100.00
3132;BME280;62090;52.330;9.104;2024-03-06T07:31:00;101671.53;;;6.40;100.00
3132;BME280;62090;52.330;9.104;2024-03-06T07:33:47;101666.13;;;6.33;100.00
3132;BME280;62090;52.330;9.104;2024-03-06T07:36:18;101681.38;;;6.35;100.00
3132;BME280;62090;52.330;9.104;2024-03-06T07:38:48;101660.63;;;6.26;100.00
3132;BME280;62090;52.330;9.104;2024-03-06T07:41:18;101688.44;;;6.41;100.00
3132;BME280;62090;52.330;9.104;2024-03-06T07:43:51;101694.63;;;6.46;100.00
3132;BME280;62090;52.330;9.104;2024-03-06T07:46:21;101699.44;;;6.41;100.00
3132;BME280;62090;52.330;9.104;2024-03-06T07:48:52;101699.97;;;6.35;100.00
3132;BME280;62090;52.330;9.104;2024-03-06T07:51:23;101691.19;;;6.29;100.00
3132;BME280;62090;52.330;9.104;2024-03-06T07:53:53;101676.94;;;6.31;100.00
3132;BME280;62090;52.330;9.104;2024-03-06T07:56:24;101671.88;;;6.31;100.00
3132;BME280;62090;52.330;9.104;2024-03-06T07:58:56;101707.13;;;6.57;100.00
3132;BME280;62090;52.330;9.104;2024-03-06T08:01:27;101676.66;;;6.41;100.00
3132;BME280;62090;52.330;9.104;2024-03-06T08:03:59;101665.91;;;6.45;100.00
3132;BME280;62090;52.330;9.104;2024-03-06T08:06:29;101684.56;;;6.62;100.00
3132;BME280;62090;52.330;9.104;2024-03-06T08:09:00;101675.69;;;6.54;100.00
3132;BME280;62090;52.330;9.104;2024-03-06T08:11:30;101679.50;;;6.62;100.00
3132;BME280;62090;52.330;9.104;2024-03-06T08:14:03;101712.75;;;6.83;100.00
3132;BME280;62090;52.330;9.104;2024-03-06T08:16:33;101711.81;;;6.81;100.00
3132;BME280;62090;52.330;9.104;2024-03-06T08:19:04;101695.38;;;6.74;100.00
3132;BME280;62090;52.330;9.104;2024-03-06T08:21:35;101700.25;;;6.86;100.00
3132;BME280;62090;52.330;9.104;2024-03-06T08:24:05;101710.34;;;7.00;100.00
3132;BME280;62090;52.330;9.104;2024-03-06T08:26:35;101710.00;;;6.94;100.00
3132;BME280;62090;52.330;9.104;2024-03-06T08:29:08;101701.53;;;6.94;100.00
3132;BME280;62090;52.330;9.104;2024-03-06T08:31:38;101667.09;;;6.66;100.00
3132;BME280;62090;52.330;9.104;2024-03-06T08:34:09;101657.44;;;6.59;100.00
3132;BME280;62090;52.330;9.104;2024-03-06T08:36:39;101737.94;;;7.10;100.00
3132;BME280;62090;52.330;9.104;2024-03-06T08:39:09;101738.91;;;7.12;100.00
3132;BME280;62090;52.330;9.104;2024-03-06T08:41:42;101613.56;;;6.29;100.00
3132;BME280;62090;52.330;9.104;2024-03-06T08:44:15;101741.97;;;7.07;100.00
3132;BME280;62090;52.330;9.104;2024-03-06T08:46:45;101742.69;;;6.90;100.00
3132;BME280;62090;52.330;9.104;2024-03-06T08:49:15;101716.00;;;6.80;100.00
3132;BME280;62090;52.330;9.104;2024-03-06T08:51:45;101742.00;;;6.92;100.00
3132;BME280;62090;52.330;9.104;2024-03-06T08:54:15;101752.53;;;7.00;100.00
3132;BME280;62090;52.330;9.104;2024-03-06T08:56:45;101761.75;;;6.98;100.00
3132;BME280;62090;52.330;9.104;2024-03-06T08:59:18;101713.28;;;6.77;100.00
3132;BME280;62090;52.330;9.104;2024-03-06T09:01:48;101777.84;;;7.14;100.00
3132;BME280;62090;52.330;9.104;2024-03-06T09:04:18;101734.81;;;7.00;100.00
3132;BME280;62090;52.330;9.104;2024-03-06T09:06:48;101703.41;;;6.82;100.00
3132;BME280;62090;52.330;9.104;2024-03-06T09:09:18;101764.31;;;7.14;100.00
3132;BME280;62090;52.330;9.104;2024-03-06T09:11:48;101769.16;;;7.26;100.00
3132;BME280;62090;52.330;9.104;2024-03-06T09:14:21;101779.31;;;7.26;100.00
3132;BME280;62090;52.330;9.104;2024-03-06T09:16:52;101783.25;;;7.20;100.00
3132;BME280;62090;52.330;9.104;2024-03-06T09:19:22;101774.28;;;7.11;100.00
3132;BME280;62090;52.330;9.104;2024-03-06T09:21:52;101778.97;;;7.19;100.00
3132;BME280;62090;52.330;9.104;2024-03-06T09:24:23;101790.16;;;7.23;100.00
3132;BME280;62090;52.330;9.104;2024-03-06T09:26:53;101789.66;;;7.14;100.00
3132;BME280;62090;52.330;9.104;2024-03-06T09:29:27;101789.94;;;7.04;100.00
3132;BME280;62090;52.330;9.104;2024-03-06T09:31:57;101773.25;;;6.93;100.00
3132;BME280;62090;52.330;9.104;2024-03-06T09:34:27;101806.19;;;7.07;100.00
3132;BME280;62090;52.330;9.104;2024-03-06T09:36:57;101814.50;;;7.05;100.00
3132;BME280;62090;52.330;9.104;2024-03-06T09:39:28;101798.78;;;6.96;100.00
3132;BME280;62090;52.330;9.104;2024-03-06T09:41:59;101793.72;;;6.96;100.00
3132;BME280;62090;52.330;9.104;2024-03-06T09:44:33;101827.06;;;7.18;100.00
3132;BME280;62090;52.330;9.104;2024-03-06T09:47:04;101743.41;;;6.72;100.00
3132;BME280;62090;52.330;9.104;2024-03-06T09:49:36;101825.66;;;7.23;100.00
3132;BME280;62090;52.330;9.104;2024-03-06T09:52:06;101811.41;;;7.10;99.74
3132;BME280;62090;52.330;9.104;2024-03-06T09:54:37;101824.78;;;7.22;99.73
3132;BME280;62090;52.330;9.104;2024-03-06T09:57:08;101808.19;;;7.13;99.63
3132;BME280;62090;52.330;9.104;2024-03-06T09:59:42;101832.53;;;7.26;98.92
3132;BME280;62090;52.330;9.104;2024-03-06T10:02:18;101836.16;;;7.29;98.66
3132;BME280;62090;52.330;9.104;2024-03-06T10:04:57;101840.34;;;7.29;98.71
3132;BME280;62090;52.330;9.104;2024-03-06T10:07:27;101802.94;;;7.10;98.73
3132;BME280;62090;52.330;9.104;2024-03-06T10:09:57;101839.28;;;7.40;98.96
3132;BME280;62090;52.330;9.104;2024-03-06T10:12:28;101767.31;;;7.07;98.61
3132;BME280;62090;52.330;9.104;2024-03-06T10:15:01;101827.72;;;7.45;98.38
3132;BME280;62090;52.330;9.104;2024-03-06T10:17:31;101801.81;;;7.36;98.51
3132;BME280;62090;52.330;9.104;2024-03-06T10:20:16;101829.94;;;7.55;98.23
3132;BME280;62090;52.330;9.104;2024-03-06T10:22:51;101844.88;;;7.65;97.47
3132;BME280;62090;52.330;9.104;2024-03-06T10:25:25;101805.25;;;7.36;97.27
3132;BME280;62090;52.330;9.104;2024-03-06T10:28:06;101812.56;;;7.46;97.09
3132;BME280;62090;52.330;9.104;2024-03-06T10:30:40;101818.94;;;7.54;97.70
3132;BME280;62090;52.330;9.104;2024-03-06T10:33:11;101850.75;;;7.80;97.66
3132;BME280;62090;52.330;9.104;2024-03-06T10:35:43;101846.66;;;7.82;97.42
3132;BME280;62090;52.330;9.104;2024-03-06T10:38:15;101857.97;;;7.89;96.13
3132;BME280;62090;52.330;9.104;2024-03-06T10:40:45;101740.94;;;7.19;96.32
3132;BME280;62090;52.330;9.104;2024-03-06T10:43:15;101777.59;;;7.41;96.07
3132;BME280;62090;52.330;9.104;2024-03-06T10:45:50;101817.19;;;7.70;95.39
3132;BME280;62090;52.330;9.104;2024-03-06T10:48:20;101860.44;;;7.87;95.66
3132;BME280;62090;52.330;9.104;2024-03-06T10:50:51;101861.47;;;7.91;95.96
3132;BME280;62090;52.330;9.104;2024-03-06T10:53:22;101826.25;;;7.81;95.84
3132;BME280;62090;52.330;9.104;2024-03-06T10:55:56;101832.69;;;7.90;96.40
3132;BME280;62090;52.330;9.104;2024-03-06T10:58:29;101824.38;;;7.93;95.75
3132;BME280;62090;52.330;9.104;2024-03-06T11:01:03;101849.59;;;8.06;95.31
3132;BME280;62090;52.330;9.104;2024-03-06T11:03:34;101861.84;;;7.98;94.78
3132;BME280;62090;52.330;9.104;2024-03-06T11:06:06;101865.78;;;8.08;94.58
3132;BME280;62090;52.330;9.104;2024-03-06T11:08:36;101877.66;;;8.09;94.46
3132;BME280;62090;52.330;9.104;2024-03-06T11:11:21;101862.13;;;8.19;94.53
3132;BME280;62090;52.330;9.104;2024-03-06T11:13:54;101866.25;;;8.17;94.58
3132;BME280;62090;52.330;9.104;2024-03-06T11:16:31;101865.78;;;8.24;93.74
3132;BME280;62090;52.330;9.104;2024-03-06T11:19:05;101820.13;;;7.93;94.32
3132;BME280;62090;52.330;9.104;2024-03-06T11:21:45;101860.25;;;8.31;94.40
3132;BME280;62090;52.330;9.104;2024-03-06T11:24:19;101873.66;;;8.45;94.13
3132;BME280;62090;52.330;9.104;2024-03-06T11:26:50;101862.50;;;8.27;92.88
3132;BME280;62090;52.330;9.104;2024-03-06T11:29:27;101870.16;;;8.43;94.18
3132;BME280;62090;52.330;9.104;2024-03-06T11:32:07;101866.19;;;8.48;92.54
3132;BME280;62090;52.330;9.104;2024-03-06T11:34:37;101892.22;;;8.44;92.09
3132;BME280;62090;52.330;9.104;2024-03-06T11:37:08;101892.31;;;8.45;93.13
3132;BME280;62090;52.330;9.104;2024-03-06T11:39:39;101886.25;;;8.60;92.95
3132;BME280;62090;52.330;9.104;2024-03-06T11:42:13;101874.34;;;8.59;92.24
3132;BME280;62090;52.330;9.104;2024-03-06T11:44:54;101879.09;;;8.69;91.33
3132;BME280;62090;52.330;9.104;2024-03-06T11:47:28;101886.53;;;8.82;90.95
3132;BME280;62090;52.330;9.104;2024-03-06T11:49:59;101863.53;;;8.63;92.27
3132;BME280;62090;52.330;9.104;2024-03-06T11:52:29;101831.41;;;8.47;90.91
3132;BME280;62090;52.330;9.104;2024-03-06T11:54:59;101896.06;;;8.86;90.78
3132;BME280;62090;52.330;9.104;2024-03-06T11:57:29;101867.91;;;8.65;90.80
3132;BME280;62090;52.330;9.104;2024-03-06T12:00:02;101896.63;;;8.80;91.65
3132;BME280;62090;52.330;9.104;2024-03-06T12:02:39;101865.47;;;8.67;91.84
3132;BME280;62090;52.330;9.104;2024-03-06T12:05:09;101853.53;;;8.66;91.77
3132;BME280;62090;52.330;9.104;2024-03-06T12:07:46;101884.66;;;8.96;92.53
3132;BME280;62090;52.330;9.104;2024-03-06T12:10:17;101898.50;;;9.18;91.35
3132;BME280;62090;52.330;9.104;2024-03-06T12:12:47;101887.38;;;9.16;89.54
3132;BME280;62090;52.330;9.104;2024-03-06T12:15:17;101855.13;;;8.98;89.68
3132;BME280;62090;52.330;9.104;2024-03-06T12:17:50;101900.81;;;9.31;89.55
3132;BME280;62090;52.330;9.104;2024-03-06T12:20:24;101898.22;;;9.30;89.23
3132;BME280;62090;52.330;9.104;2024-03-06T12:22:56;101846.91;;;9.03;89.67
3132;BME280;62090;52.330;9.104;2024-03-06T12:25:27;101877.88;;;9.30;88.96
3132;BME280;62090;52.330;9.104;2024-03-06T12:28:06;101898.22;;;9.48;89.50
3132;BME280;62090;52.330;9.104;2024-03-06T12:30:41;101878.88;;;9.33;87.42
3132;BME280;62090;52.330;9.104;2024-03-06T12:33:16;101900.97;;;9.52;88.27
3132;BME280;62090;52.330;9.104;2024-03-06T12:35:47;101890.50;;;9.64;88.98
3132;BME280;62090;52.330;9.104;2024-03-06T12:38:18;101866.38;;;9.56;88.25
3132;BME280;62090;52.330;9.104;2024-03-06T12:40:48;101787.41;;;9.17;88.02
3132;BME280;62090;52.330;9.104;2024-03-06T12:43:18;101891.31;;;10.00;85.90
3132;BME280;62090;52.330;9.104;2024-03-06T12:45:48;101878.25;;;9.92;85.75
3132;BME280;62090;52.330;9.104;2024-03-06T12:48:24;101900.44;;;10.14;84.30
3132;BME280;62090;52.330;9.104;2024-03-06T12:50:56;101869.94;;;9.96;83.56
3132;BME280;62090;52.330;9.104;2024-03-06T12:53:32;101824.50;;;9.67;83.83
3132;BME280;62090;52.330;9.104;2024-03-06T12:56:03;101886.84;;;10.13;83.42
3132;BME280;62090;52.330;9.104;2024-03-06T12:58:34;101825.16;;;9.82;82.79
3132;BME280;62090;52.330;9.104;2024-03-06T13:01:04;101893.31;;;10.25;83.11
3132;BME280;62090;52.330;9.104;2024-03-06T13:03:37;101882.13;;;10.40;83.23
3132;BME280;62090;52.330;9.104;2024-03-06T13:06:07;101891.69;;;10.46;82.82
3132;BME280;62090;52.330;9.104;2024-03-06T13:08:38;101893.38;;;10.45;81.22
3132;BME280;62090;52.330;9.104;2024-03-06T13:11:08;101859.59;;;10.30;81.70
3132;BME280;62090;52.330;9.104;2024-03-06T13:13:39;101822.91;;;10.07;82.09
3132;BME280;62090;52.330;9.104;2024-03-06T13:16:09;101886.47;;;10.43;82.05
3132;BME280;62090;52.330;9.104;2024-03-06T13:18:42;101865.75;;;10.35;83.11
3132;BME280;62090;52.330;9.104;2024-03-06T13:21:13;101846.59;;;10.24;81.38
3132;BME280;62090;52.330;9.104;2024-03-06T13:23:43;101863.06;;;10.32;81.76
3132;BME280;62090;52.330;9.104;2024-03-06T13:26:13;101883.78;;;10.40;80.09
3132;BME280;62090;52.330;9.104;2024-03-06T13:28:45;101810.28;;;9.91;81.03
3132;BME280;62090;52.330;9.104;2024-03-06T13:31:15;101877.75;;;10.19;81.42